createdAt,value
2023-05-03T00:00:24.010Z,71.38
2023-05-03T00:01:15.990Z,71.50
2023-05-03T00:01:49.291Z,71.55
2023-05-03T00:02:22.681Z,71.63
2023-05-03T00:02:57.608Z,71.67
2023-05-03T00:03:31.871Z,71.71
2023-05-03T00:04:04.977Z,71.77
2023-05-03T00:04:38.365Z,71.84
2023-05-03T00:05:15.331Z,71.89
2023-05-03T00:05:48.836Z,71.89
2023-05-03T00:06:22.372Z,71.90
2023-05-03T00:06:56.243Z,71.93
2023-05-03T00:07:29.442Z,72.02
2023-05-03T00:08:02.864Z,72.07
2023-05-03T00:08:35.830Z,72.12
2023-05-03T00:09:10.903Z,72.13
2023-05-03T00:09:44.135Z,72.19
2023-05-03T00:10:17.332Z,72.23
2023-05-03T00:10:50.431Z,72.25
2023-05-03T00:11:23.489Z,71.99
2023-05-03T00:11:56.789Z,71.91
2023-05-03T00:12:30.248Z,71.79
2023-05-03T00:13:03.441Z,71.66
2023-05-03T00:13:36.816Z,71.66
2023-05-03T00:14:09.927Z,71.65
2023-05-03T00:14:43.013Z,71.58
2023-05-03T00:15:16.194Z,71.62
2023-05-03T00:15:50.209Z,71.70
2023-05-03T00:16:23.450Z,71.72
2023-05-03T00:16:56.730Z,71.70
2023-05-03T00:17:30.033Z,71.71
2023-05-03T00:18:03.308Z,71.58
2023-05-03T00:18:36.643Z,71.53
2023-05-03T00:19:17.748Z,71.46
2023-05-03T00:19:57.773Z,71.47
2023-05-03T00:20:30.923Z,71.45
2023-05-03T00:21:04.308Z,71.48
2023-05-03T00:21:37.497Z,71.37
2023-05-03T00:22:10.689Z,71.18
2023-05-03T00:22:43.912Z,71.10
2023-05-03T00:23:17.114Z,71.11
2023-05-03T00:23:50.402Z,70.89
2023-05-03T00:24:23.558Z,70.84
2023-05-03T00:24:56.699Z,71.01
2023-05-03T00:25:29.914Z,71.17
2023-05-03T00:26:03.055Z,71.12
2023-05-03T00:26:36.135Z,70.79
2023-05-03T00:27:09.372Z,70.89
2023-05-03T00:27:42.445Z,70.79
2023-05-03T00:28:15.665Z,70.62
2023-05-03T00:28:48.881Z,70.64
2023-05-03T00:29:23.154Z,70.83
2023-05-03T00:29:56.304Z,70.77
2023-05-03T00:30:29.618Z,70.80
2023-05-03T00:31:11.636Z,70.83
2023-05-03T00:31:44.897Z,70.78
2023-05-03T00:32:18.420Z,70.84
2023-05-03T00:32:51.980Z,70.98
2023-05-03T00:33:25.261Z,70.95
2023-05-03T00:33:58.457Z,70.83
2023-05-03T00:34:31.655Z,70.78
2023-05-03T00:35:05.006Z,70.74
2023-05-03T00:35:38.036Z,70.78
2023-05-03T00:36:11.957Z,70.85
2023-05-03T00:36:45.257Z,70.95
2023-05-03T00:37:18.657Z,70.95
2023-05-03T00:37:51.828Z,70.89
2023-05-03T00:38:24.815Z,70.95
2023-05-03T00:38:57.884Z,70.93
2023-05-03T00:39:34.027Z,70.85
2023-05-03T00:40:07.625Z,70.90
2023-05-03T00:40:41.181Z,71.03
2023-05-03T00:41:14.391Z,71.10
2023-05-03T00:41:47.446Z,71.16
2023-05-03T00:42:20.679Z,71.21
2023-05-03T00:42:53.933Z,71.14
2023-05-03T00:43:27.065Z,71.14
2023-05-03T00:44:00.230Z,71.05
2023-05-03T00:44:33.459Z,70.90
2023-05-03T00:45:07.010Z,70.92
2023-05-03T00:45:40.236Z,70.87
2023-05-03T00:46:17.290Z,70.96
2023-05-03T00:46:51.165Z,70.97
2023-05-03T00:47:24.681Z,71.02
2023-05-03T00:47:58.531Z,71.01
2023-05-03T00:48:31.722Z,71.10
2023-05-03T00:49:04.669Z,71.16
2023-05-03T00:49:37.876Z,71.26
2023-05-03T00:50:12.244Z,71.22
2023-05-03T00:50:46.192Z,71.08
2023-05-03T00:51:20.733Z,71.12
2023-05-03T00:51:54.744Z,71.17
2023-05-03T00:52:28.139Z,71.22
2023-05-03T00:53:01.285Z,70.98
2023-05-03T00:53:35.135Z,71.06
2023-05-03T00:54:09.322Z,70.98
2023-05-03T00:54:42.520Z,71.00
2023-05-03T00:55:15.887Z,71.02
2023-05-03T00:55:52.033Z,71.12
2023-05-03T00:56:26.586Z,71.03
2023-05-03T00:56:59.894Z,71.07
2023-05-03T00:57:33.050Z,71.10
2023-05-03T00:58:06.113Z,71.12
2023-05-03T00:58:40.792Z,71.11
2023-05-03T00:59:14.130Z,71.00
2023-05-03T00:59:47.251Z,71.01
2023-05-03T01:00:20.650Z,71.10
2023-05-03T01:00:53.741Z,71.03
2023-05-03T01:01:27.017Z,70.96
2023-05-03T01:02:00.376Z,71.06
2023-05-03T01:02:34.615Z,71.06
2023-05-03T01:03:07.946Z,71.12
2023-05-03T01:03:41.949Z,71.17
2023-05-03T01:04:15.528Z,71.26
2023-05-03T01:04:48.839Z,71.22
2023-05-03T01:05:23.138Z,70.66
2023-05-03T01:06:12.396Z,70.68
2023-05-03T01:06:53.051Z,70.82
2023-05-03T01:07:44.127Z,70.93
2023-05-03T01:08:24.323Z,71.05
2023-05-03T01:09:06.894Z,71.06
2023-05-03T01:09:51.918Z,71.17
2023-05-03T01:10:24.911Z,71.26
2023-05-03T01:11:04.116Z,71.01
2023-05-03T01:11:42.329Z,70.76
2023-05-03T01:12:36.341Z,70.91
2023-05-03T01:13:09.270Z,70.81
2023-05-03T01:14:00.888Z,70.92
2023-05-03T01:14:41.019Z,71.04
2023-05-03T01:15:19.897Z,71.11
2023-05-03T01:15:53.081Z,70.96
2023-05-03T01:16:37.072Z,71.07
2023-05-03T01:17:12.509Z,71.17
2023-05-03T01:17:51.285Z,71.21
2023-05-03T01:18:30.676Z,71.25
2023-05-03T01:19:06.748Z,71.28
2023-05-03T01:19:44.628Z,71.34
2023-05-03T01:20:21.876Z,71.25
2023-05-03T01:20:56.100Z,71.19
2023-05-03T01:21:31.040Z,71.01
2023-05-03T01:22:25.088Z,70.49
2023-05-03T01:22:58.194Z,70.66
2023-05-03T01:23:31.432Z,70.71
2023-05-03T01:24:08.265Z,70.67
2023-05-03T01:24:42.643Z,70.18
2023-05-03T01:25:16.385Z,70.00
2023-05-03T01:25:51.260Z,70.01
2023-05-03T01:26:25.111Z,69.78
2023-05-03T01:26:59.512Z,69.73
2023-05-03T01:27:32.549Z,69.80
2023-05-03T01:28:06.014Z,69.98
2023-05-03T01:28:39.165Z,70.15
2023-05-03T01:29:12.241Z,70.27
2023-05-03T01:29:45.905Z,70.37
2023-05-03T01:30:22.105Z,70.46
2023-05-03T01:30:56.230Z,69.98
2023-05-03T01:31:32.430Z,69.68
2023-05-03T01:32:08.673Z,69.68
2023-05-03T01:32:44.618Z,69.72
2023-05-03T01:33:24.028Z,69.92
2023-05-03T01:34:06.065Z,69.84
2023-05-03T01:34:50.117Z,69.88
2023-05-03T01:35:23.366Z,69.90
2023-05-03T01:36:00.275Z,69.98
2023-05-03T01:36:35.736Z,70.07
2023-05-03T01:37:11.270Z,70.19
2023-05-03T01:37:44.419Z,70.16
2023-05-03T01:38:18.644Z,70.14
2023-05-03T01:38:51.848Z,70.14
2023-05-03T01:39:27.094Z,70.09
2023-05-03T01:40:02.790Z,70.52
2023-05-03T01:40:42.579Z,70.50
2023-05-03T01:41:17.517Z,70.57
2023-05-03T01:41:54.274Z,70.78
2023-05-03T01:42:27.508Z,71.01
2023-05-03T01:43:01.654Z,70.99
2023-05-03T01:43:36.418Z,70.97
2023-05-03T01:44:11.032Z,70.81
2023-05-03T01:44:44.772Z,70.97
2023-05-03T01:45:18.657Z,71.15
2023-05-03T01:45:52.633Z,71.18
2023-05-03T01:46:25.716Z,71.14
2023-05-03T01:46:58.869Z,71.45
2023-05-03T01:47:32.013Z,71.54
2023-05-03T01:48:09.405Z,71.32
2023-05-03T01:48:42.426Z,71.08
2023-05-03T01:49:15.533Z,71.03
2023-05-03T01:49:48.699Z,71.00
2023-05-03T01:50:21.783Z,71.03
2023-05-03T01:50:54.989Z,71.08
2023-05-03T01:51:28.150Z,71.13
2023-05-03T01:52:01.462Z,71.19
2023-05-03T01:52:34.661Z,71.22
2023-05-03T01:53:07.821Z,71.25
2023-05-03T01:53:42.100Z,71.29
2023-05-03T01:54:15.297Z,71.29
2023-05-03T01:54:48.418Z,71.23
2023-05-03T01:55:21.441Z,71.26
2023-05-03T01:55:54.708Z,71.30
2023-05-03T01:56:28.198Z,71.40
2023-05-03T01:57:01.969Z,71.48
2023-05-03T01:57:35.089Z,71.47
2023-05-03T01:58:08.152Z,71.51
2023-05-03T01:58:41.255Z,71.59
2023-05-03T01:59:14.254Z,71.62
2023-05-03T01:59:47.307Z,71.68
2023-05-03T02:00:20.476Z,71.70
2023-05-03T02:00:53.874Z,71.77
2023-05-03T02:01:27.137Z,71.87
2023-05-03T02:02:00.610Z,71.99
2023-05-03T02:02:33.952Z,72.07
2023-05-03T02:03:07.097Z,72.12
2023-05-03T02:03:40.220Z,72.14
2023-05-03T02:04:13.326Z,72.10
2023-05-03T02:04:46.627Z,72.09
2023-05-03T02:05:19.853Z,71.96
2023-05-03T02:05:52.965Z,71.86
2023-05-03T02:06:26.551Z,71.88
2023-05-03T02:06:59.872Z,72.00
2023-05-03T02:07:33.150Z,72.11
2023-05-03T02:08:06.392Z,72.15
2023-05-03T02:08:39.539Z,72.18
2023-05-03T02:09:13.140Z,72.15
2023-05-03T02:09:46.268Z,71.88
2023-05-03T02:10:19.451Z,71.76
2023-05-03T02:10:52.657Z,71.88
2023-05-03T02:11:25.947Z,71.97
2023-05-03T02:11:59.004Z,72.08
2023-05-03T02:12:32.223Z,72.19
2023-05-03T02:13:05.373Z,72.20
2023-05-03T02:13:39.339Z,72.20
2023-05-03T02:14:12.803Z,72.20
2023-05-03T02:14:45.975Z,72.28
2023-05-03T02:15:20.418Z,72.30
2023-05-03T02:15:53.833Z,72.40
2023-05-03T02:16:27.870Z,72.48
2023-05-03T02:17:03.436Z,72.58
2023-05-03T02:17:37.705Z,72.60
2023-05-03T02:18:10.770Z,72.65
2023-05-03T02:18:44.742Z,72.67
2023-05-03T02:19:17.791Z,72.72
2023-05-03T02:19:51.132Z,72.59
2023-05-03T02:20:24.368Z,72.33
2023-05-03T02:20:58.126Z,72.48
2023-05-03T02:21:31.862Z,72.49
2023-05-03T02:22:05.082Z,72.45
2023-05-03T02:22:38.168Z,72.46
2023-05-03T02:23:11.620Z,72.56
2023-05-03T02:23:44.759Z,72.46
2023-05-03T02:24:17.864Z,72.52
2023-05-03T02:24:50.976Z,72.57
2023-05-03T02:25:25.756Z,72.61
2023-05-03T02:26:00.024Z,72.67
2023-05-03T02:26:33.230Z,72.72
2023-05-03T02:27:06.594Z,72.76
2023-05-03T02:27:39.816Z,72.79
2023-05-03T02:28:12.963Z,72.80
2023-05-03T02:28:46.030Z,72.86
2023-05-03T02:29:19.172Z,72.92
2023-05-03T02:29:52.655Z,72.97
2023-05-03T02:30:26.070Z,73.01
2023-05-03T02:30:59.197Z,73.08
2023-05-03T02:31:32.296Z,73.11
2023-05-03T02:32:05.918Z,73.18
2023-05-03T02:32:39.078Z,73.24
2023-05-03T02:33:12.433Z,73.20
2023-05-03T02:33:45.968Z,73.18
2023-05-03T02:34:19.174Z,73.13
2023-05-03T02:34:52.348Z,73.23
2023-05-03T02:35:25.422Z,73.26
2023-05-03T02:35:58.562Z,73.28
2023-05-03T02:36:32.267Z,73.30
2023-05-03T02:37:05.448Z,73.31
2023-05-03T02:37:38.702Z,73.33
2023-05-03T02:38:12.266Z,73.38
2023-05-03T02:38:45.568Z,73.40
2023-05-03T02:39:18.796Z,73.38
2023-05-03T02:39:51.826Z,73.39
2023-05-03T02:40:25.064Z,73.39
2023-05-03T02:40:58.301Z,73.32
2023-05-03T02:41:31.856Z,73.33
2023-05-03T02:42:05.276Z,73.39
2023-05-03T02:42:38.395Z,73.43
2023-05-03T02:43:11.759Z,73.49
2023-05-03T02:43:44.901Z,73.46
2023-05-03T02:44:18.110Z,73.50
2023-05-03T02:44:51.522Z,73.57
2023-05-03T02:45:24.922Z,73.58
2023-05-03T02:45:58.052Z,73.59
2023-05-03T02:46:31.569Z,73.65
2023-05-03T02:47:04.723Z,73.70
2023-05-03T02:47:37.955Z,73.73
2023-05-03T02:48:11.242Z,73.74
2023-05-03T02:48:44.254Z,73.66
2023-05-03T02:49:17.482Z,73.61
2023-05-03T02:49:50.660Z,73.66
2023-05-03T02:50:23.935Z,73.68
2023-05-03T02:50:57.085Z,73.70
2023-05-03T02:51:30.082Z,73.66
2023-05-03T02:52:03.771Z,73.32
2023-05-03T02:52:36.995Z,73.35
2023-05-03T02:53:10.135Z,73.42
2023-05-03T02:53:43.335Z,73.48
2023-05-03T02:54:16.542Z,73.51
2023-05-03T02:54:49.854Z,73.55
2023-05-03T02:55:23.002Z,73.61
2023-05-03T02:55:56.109Z,73.60
2023-05-03T02:56:29.467Z,73.62
2023-05-03T02:57:02.568Z,73.67
2023-05-03T02:57:36.304Z,73.76
2023-05-03T02:58:10.337Z,73.79
2023-05-03T02:58:43.492Z,73.83
2023-05-03T02:59:16.434Z,73.82
2023-05-03T02:59:49.646Z,73.85
2023-05-03T03:00:22.925Z,73.88
2023-05-03T03:00:56.093Z,73.86
2023-05-03T03:01:30.073Z,73.91
2023-05-03T03:02:03.317Z,73.91
2023-05-03T03:02:36.806Z,73.98
2023-05-03T03:03:10.211Z,73.98
2023-05-03T03:03:43.621Z,73.98
2023-05-03T03:04:16.864Z,73.95
2023-05-03T03:04:50.029Z,73.90
2023-05-03T03:05:23.088Z,73.81
2023-05-03T03:05:56.262Z,73.85
2023-05-03T03:06:29.547Z,73.91
2023-05-03T03:07:02.636Z,73.98
2023-05-03T03:07:37.582Z,73.82
2023-05-03T03:08:10.771Z,73.81
2023-05-03T03:08:44.233Z,73.77
2023-05-03T03:09:17.911Z,73.84
2023-05-03T03:09:51.328Z,73.88
2023-05-03T03:10:24.517Z,73.95
2023-05-03T03:10:57.622Z,74.00
2023-05-03T03:11:30.852Z,73.97
2023-05-03T03:12:04.196Z,73.99
2023-05-03T03:12:37.385Z,73.86
2023-05-03T03:13:10.839Z,73.91
2023-05-03T03:13:44.067Z,73.86
2023-05-03T03:14:17.094Z,73.64
2023-05-03T03:14:50.173Z,73.69
2023-05-03T03:15:23.462Z,73.63
2023-05-03T03:15:56.548Z,73.52
2023-05-03T03:16:30.194Z,73.60
2023-05-03T03:17:07.585Z,73.13
2023-05-03T03:17:40.841Z,73.13
2023-05-03T03:18:13.997Z,73.22
2023-05-03T03:18:47.049Z,73.02
2023-05-03T03:19:20.136Z,73.09
2023-05-03T03:19:53.353Z,73.11
2023-05-03T03:20:26.825Z,73.20
2023-05-03T03:21:01.377Z,73.28
2023-05-03T03:21:36.271Z,73.33
2023-05-03T03:22:09.529Z,73.41
2023-05-03T03:22:44.119Z,73.38
2023-05-03T03:23:17.142Z,73.44
2023-05-03T03:23:50.331Z,73.46
2023-05-03T03:24:23.308Z,73.52
2023-05-03T03:24:56.582Z,73.55
2023-05-03T03:25:29.709Z,73.61
2023-05-03T03:26:02.858Z,73.68
2023-05-03T03:26:36.049Z,73.72
2023-05-03T03:27:09.266Z,73.71
2023-05-03T03:27:42.574Z,73.59
2023-05-03T03:28:15.670Z,73.51
2023-05-03T03:28:48.747Z,73.54
2023-05-03T03:29:21.791Z,73.27
2023-05-03T03:29:54.994Z,73.36
2023-05-03T03:30:28.427Z,73.48
2023-05-03T03:31:01.581Z,73.54
2023-05-03T03:31:34.777Z,73.23
2023-05-03T03:32:08.030Z,73.29
2023-05-03T03:32:41.427Z,73.45
2023-05-03T03:33:14.752Z,73.55
2023-05-03T03:33:48.739Z,73.58
2023-05-03T03:34:21.730Z,73.53
2023-05-03T03:34:54.953Z,73.60
2023-05-03T03:35:28.395Z,73.64
2023-05-03T03:36:01.965Z,73.68
2023-05-03T03:36:37.279Z,73.77
2023-05-03T03:37:10.407Z,73.88
2023-05-03T03:37:43.725Z,73.91
2023-05-03T03:38:17.005Z,73.96
2023-05-03T03:38:50.042Z,74.01
2023-05-03T03:39:23.188Z,74.02
2023-05-03T03:39:56.652Z,74.10
2023-05-03T03:40:29.823Z,74.16
2023-05-03T03:41:03.055Z,74.20
2023-05-03T03:41:36.286Z,74.22
2023-05-03T03:42:11.319Z,74.33
2023-05-03T03:42:44.582Z,74.35
2023-05-03T03:43:17.596Z,74.37
2023-05-03T03:43:50.881Z,74.35
2023-05-03T03:44:23.967Z,74.37
2023-05-03T03:44:57.232Z,74.39
2023-05-03T03:45:30.313Z,74.39
2023-05-03T03:46:03.737Z,74.41
2023-05-03T03:46:37.010Z,74.39
2023-05-03T03:47:10.436Z,74.31
2023-05-03T03:47:43.846Z,74.30
2023-05-03T03:48:17.330Z,74.27
2023-05-03T03:48:50.749Z,74.29
2023-05-03T03:49:23.794Z,74.38
2023-05-03T03:49:57.043Z,74.45
2023-05-03T03:50:30.231Z,74.52
2023-05-03T03:51:03.323Z,74.54
2023-05-03T03:51:36.468Z,74.55
2023-05-03T03:52:09.652Z,74.56
2023-05-03T03:52:42.919Z,74.53
2023-05-03T03:53:16.122Z,74.51
2023-05-03T03:53:49.233Z,74.52
2023-05-03T03:54:22.315Z,74.56
2023-05-03T03:54:55.538Z,74.59
2023-05-03T03:55:28.699Z,74.62
2023-05-03T03:56:02.010Z,74.61
2023-05-03T03:56:35.086Z,74.62
2023-05-03T03:57:09.516Z,74.62
2023-05-03T03:57:42.653Z,74.59
2023-05-03T03:58:15.950Z,74.62
2023-05-03T03:58:49.092Z,74.59
2023-05-03T03:59:22.352Z,74.59
2023-05-03T03:59:55.542Z,74.55
2023-05-03T04:00:28.754Z,74.53
2023-05-03T04:01:02.360Z,74.56
2023-05-03T04:01:36.006Z,74.54
2023-05-03T04:02:09.261Z,74.54
2023-05-03T04:02:42.835Z,74.55
2023-05-03T04:03:16.200Z,74.58
2023-05-03T04:03:49.573Z,74.58
2023-05-03T04:04:23.026Z,74.60
2023-05-03T04:04:56.061Z,74.59
2023-05-03T04:05:29.279Z,74.45
2023-05-03T04:06:02.433Z,74.52
2023-05-03T04:06:35.589Z,74.29
2023-05-03T04:07:09.645Z,74.22
2023-05-03T04:07:42.889Z,74.32
2023-05-03T04:08:16.061Z,74.33
2023-05-03T04:08:49.204Z,74.23
2023-05-03T04:09:22.382Z,74.23
2023-05-03T04:09:56.804Z,74.31
2023-05-03T04:10:30.063Z,74.11
2023-05-03T04:11:03.368Z,73.97
2023-05-03T04:11:36.675Z,74.06
2023-05-03T04:12:09.952Z,74.12
2023-05-03T04:12:43.057Z,74.19
2023-05-03T04:13:16.065Z,74.14
2023-05-03T04:13:49.653Z,74.12
2023-05-03T04:14:22.856Z,74.28
2023-05-03T04:14:57.330Z,74.33
2023-05-03T04:15:30.736Z,74.36
2023-05-03T04:16:04.937Z,74.35
2023-05-03T04:16:38.284Z,74.41
2023-05-03T04:17:11.826Z,74.48
2023-05-03T04:17:45.246Z,74.50
2023-05-03T04:18:18.398Z,74.58
2023-05-03T04:18:52.005Z,74.59
2023-05-03T04:19:26.214Z,74.55
2023-05-03T04:19:59.324Z,74.37
2023-05-03T04:20:33.228Z,74.38
2023-05-03T04:21:06.539Z,74.46
2023-05-03T04:21:39.557Z,74.50
2023-05-03T04:22:12.604Z,74.52
2023-05-03T04:22:45.790Z,74.54
2023-05-03T04:23:18.965Z,74.57
2023-05-03T04:23:52.385Z,74.56
2023-05-03T04:24:25.838Z,74.56
2023-05-03T04:25:01.357Z,74.63
2023-05-03T04:25:34.357Z,74.65
2023-05-03T04:26:10.364Z,74.69
2023-05-03T04:26:51.747Z,74.74
2023-05-03T04:27:26.932Z,74.74
2023-05-03T04:28:00.180Z,74.76
2023-05-03T04:28:33.920Z,74.73
2023-05-03T04:29:07.236Z,74.76
2023-05-03T04:29:40.349Z,74.62
2023-05-03T04:30:15.636Z,74.58
2023-05-03T04:30:49.606Z,74.62
2023-05-03T04:31:22.756Z,74.70
2023-05-03T04:31:56.292Z,74.68
2023-05-03T04:32:29.556Z,74.58
2023-05-03T04:33:04.812Z,74.55
2023-05-03T04:33:38.109Z,74.45
2023-05-03T04:34:15.128Z,74.49
2023-05-03T04:34:49.531Z,74.40
2023-05-03T04:35:23.386Z,74.49
2023-05-03T04:35:56.725Z,74.58
2023-05-03T04:36:30.181Z,74.55
2023-05-03T04:37:05.322Z,74.60
2023-05-03T04:37:38.957Z,74.64
2023-05-03T04:38:12.899Z,74.36
2023-05-03T04:38:46.076Z,74.45
2023-05-03T04:39:19.843Z,74.38
2023-05-03T04:39:53.072Z,74.43
2023-05-03T04:40:26.455Z,74.48
2023-05-03T04:40:59.572Z,74.51
2023-05-03T04:41:33.405Z,74.59
2023-05-03T04:42:06.600Z,74.67
2023-05-03T04:42:39.774Z,74.72
2023-05-03T04:43:13.121Z,74.73
2023-05-03T04:43:46.331Z,74.70
2023-05-03T04:44:19.666Z,74.54
2023-05-03T04:44:52.911Z,74.65
2023-05-03T04:45:27.280Z,74.74
2023-05-03T04:46:00.471Z,74.79
2023-05-03T04:46:33.761Z,74.79
2023-05-03T04:47:06.919Z,74.76
2023-05-03T04:47:40.498Z,74.77
2023-05-03T04:48:13.902Z,74.78
2023-05-03T04:48:47.091Z,74.77
2023-05-03T04:49:20.177Z,74.80
2023-05-03T04:49:53.270Z,74.85
2023-05-03T04:50:26.422Z,74.82
2023-05-03T04:50:59.409Z,74.80
2023-05-03T04:51:32.522Z,74.86
2023-05-03T04:52:05.726Z,74.90
2023-05-03T04:52:38.854Z,74.97
2023-05-03T04:53:12.004Z,74.99
2023-05-03T04:53:45.173Z,74.96
2023-05-03T04:54:18.246Z,75.00
2023-05-03T04:54:52.093Z,75.00
2023-05-03T04:55:25.324Z,75.02
2023-05-03T04:55:58.645Z,75.04
2023-05-03T04:56:34.946Z,75.15
2023-05-03T04:57:10.471Z,75.16
2023-05-03T04:57:43.693Z,75.16
2023-05-03T04:58:17.313Z,75.18
2023-05-03T04:58:50.777Z,75.10
2023-05-03T04:59:24.050Z,75.11
2023-05-03T04:59:57.290Z,75.13
2023-05-03T05:00:31.176Z,75.05
2023-05-03T05:01:04.374Z,75.06
2023-05-03T05:01:37.376Z,75.09
2023-05-03T05:02:10.729Z,75.10
2023-05-03T05:02:44.093Z,75.11
2023-05-03T05:03:17.381Z,75.17
2023-05-03T05:03:50.873Z,75.14
2023-05-03T05:04:24.254Z,75.14
2023-05-03T05:04:57.391Z,75.13
2023-05-03T05:05:30.451Z,75.16
2023-05-03T05:06:03.605Z,75.14
2023-05-03T05:06:37.080Z,75.12
2023-05-03T05:07:10.511Z,75.07
2023-05-03T05:07:43.694Z,75.03
2023-05-03T05:08:16.993Z,74.84
2023-05-03T05:08:51.047Z,74.41
2023-05-03T05:09:25.306Z,74.61
2023-05-03T05:09:58.499Z,74.73
2023-05-03T05:10:31.778Z,74.79
2023-05-03T05:11:05.515Z,74.82
2023-05-03T05:11:38.739Z,74.28
2023-05-03T05:12:12.007Z,73.57
2023-05-03T05:12:45.277Z,73.80
2023-05-03T05:13:18.379Z,73.82
2023-05-03T05:13:51.624Z,73.97
2023-05-03T05:14:26.646Z,74.10
2023-05-03T05:15:00.082Z,74.18
2023-05-03T05:15:33.544Z,74.17
2023-05-03T05:16:07.026Z,74.13
2023-05-03T05:16:40.230Z,74.09
2023-05-03T05:17:13.284Z,74.12
2023-05-03T05:17:46.365Z,74.18
2023-05-03T05:18:19.595Z,74.25
2023-05-03T05:18:52.701Z,74.31
2023-05-03T05:19:25.774Z,74.34
2023-05-03T05:19:59.019Z,74.30
2023-05-03T05:20:32.270Z,74.33
2023-05-03T05:21:05.756Z,74.36
2023-05-03T05:21:39.354Z,74.39
2023-05-03T05:22:12.562Z,74.39
2023-05-03T05:22:45.958Z,74.42
2023-05-03T05:23:19.464Z,74.46
2023-05-03T05:23:52.618Z,74.49
2023-05-03T05:24:25.937Z,74.52
2023-05-03T05:24:59.200Z,74.55
2023-05-03T05:25:32.423Z,74.60
2023-05-03T05:26:05.866Z,74.66
2023-05-03T05:26:39.074Z,74.67
2023-05-03T05:27:12.462Z,74.69
2023-05-03T05:27:45.621Z,74.36
2023-05-03T05:28:18.787Z,74.05
2023-05-03T05:28:51.965Z,74.24
2023-05-03T05:29:25.325Z,74.34
2023-05-03T05:29:59.861Z,74.39
2023-05-03T05:30:33.741Z,73.27
2023-05-03T05:31:07.818Z,72.47
2023-05-03T05:31:41.135Z,72.72
2023-05-03T05:32:14.430Z,72.96
2023-05-03T05:32:47.718Z,73.15
2023-05-03T05:33:21.304Z,73.27
2023-05-03T05:33:54.708Z,73.33
2023-05-03T05:34:27.921Z,73.44
2023-05-03T05:35:01.315Z,73.52
2023-05-03T05:35:34.592Z,73.60
2023-05-03T05:36:08.025Z,73.66
2023-05-03T05:36:41.272Z,73.68
2023-05-03T05:37:14.411Z,73.74
2023-05-03T05:37:47.779Z,73.74
2023-05-03T05:38:20.965Z,73.72
2023-05-03T05:38:54.196Z,73.81
2023-05-03T05:39:27.276Z,73.91
2023-05-03T05:40:00.815Z,73.95
2023-05-03T05:40:34.042Z,73.97
2023-05-03T05:41:07.256Z,73.96
2023-05-03T05:41:40.736Z,73.95
2023-05-03T05:42:14.071Z,73.97
2023-05-03T05:42:48.856Z,74.02
2023-05-03T05:43:21.855Z,74.07
2023-05-03T05:43:54.965Z,74.06
2023-05-03T05:44:28.119Z,74.11
2023-05-03T05:45:01.407Z,74.10
2023-05-03T05:45:34.843Z,74.09
2023-05-03T05:46:08.537Z,74.12
2023-05-03T05:46:41.889Z,73.47
2023-05-03T05:47:15.366Z,72.71
2023-05-03T05:47:48.737Z,72.25
2023-05-03T05:48:22.065Z,72.09
2023-05-03T05:48:55.280Z,71.93
2023-05-03T05:49:29.094Z,72.18
2023-05-03T05:50:02.932Z,72.41
2023-05-03T05:50:39.035Z,72.56
2023-05-03T05:51:12.211Z,72.00
2023-05-03T05:51:45.371Z,71.89
2023-05-03T05:52:18.444Z,72.02
2023-05-03T05:52:53.300Z,72.19
2023-05-03T05:53:26.663Z,72.30
2023-05-03T05:53:59.947Z,72.43
2023-05-03T05:54:33.059Z,72.55
2023-05-03T05:55:07.994Z,72.69
2023-05-03T05:55:41.212Z,72.78
2023-05-03T05:56:14.683Z,72.32
2023-05-03T05:56:47.878Z,71.68
2023-05-03T05:57:21.092Z,71.80
2023-05-03T05:57:54.200Z,71.95
2023-05-03T05:58:27.497Z,71.97
2023-05-03T05:59:01.144Z,71.96
2023-05-03T05:59:34.195Z,72.03
2023-05-03T06:00:14.940Z,72.16
2023-05-03T06:00:49.344Z,72.27
2023-05-03T06:01:22.655Z,72.35
2023-05-03T06:01:55.888Z,72.43
2023-05-03T06:02:29.790Z,72.49
2023-05-03T06:03:03.211Z,72.54
2023-05-03T06:03:36.447Z,72.59
2023-05-03T06:04:09.832Z,72.63
2023-05-03T06:04:43.068Z,72.02
2023-05-03T06:05:16.323Z,72.00
2023-05-03T06:05:49.762Z,71.88
2023-05-03T06:06:23.077Z,71.98
2023-05-03T06:06:56.231Z,71.83
2023-05-03T06:07:29.619Z,71.37
2023-05-03T06:08:02.859Z,71.30
2023-05-03T06:08:36.517Z,71.28
2023-05-03T06:09:23.010Z,71.32
2023-05-03T06:09:57.856Z,71.44
2023-05-03T06:10:31.075Z,71.43
2023-05-03T06:11:04.405Z,71.52
2023-05-03T06:11:38.560Z,71.63
2023-05-03T06:12:11.846Z,71.78
2023-05-03T06:12:44.915Z,71.85
2023-05-03T06:13:17.943Z,71.79
2023-05-03T06:13:51.192Z,71.87
2023-05-03T06:14:24.294Z,71.94
2023-05-03T06:15:02.847Z,71.98
2023-05-03T06:15:36.587Z,72.08
2023-05-03T06:16:11.527Z,72.14
2023-05-03T06:16:44.914Z,72.22
2023-05-03T06:17:18.225Z,72.29
2023-05-03T06:17:51.706Z,71.93
2023-05-03T06:18:24.929Z,71.50
2023-05-03T06:18:58.071Z,71.29
2023-05-03T06:19:31.476Z,71.17
2023-05-03T06:20:05.322Z,71.27
2023-05-03T06:20:39.082Z,71.40
2023-05-03T06:21:12.327Z,71.47
2023-05-03T06:21:45.462Z,71.54
2023-05-03T06:22:18.842Z,71.62
2023-05-03T06:22:52.588Z,71.69
2023-05-03T06:23:28.116Z,71.64
2023-05-03T06:24:01.391Z,71.25
2023-05-03T06:24:34.785Z,71.15
2023-05-03T06:25:08.344Z,71.10
2023-05-03T06:25:41.481Z,71.12
2023-05-03T06:26:15.978Z,71.16
2023-05-03T06:26:49.182Z,71.14
2023-05-03T06:27:22.405Z,71.15
2023-05-03T06:27:55.686Z,71.14
2023-05-03T06:28:29.008Z,71.14
2023-05-03T06:29:03.002Z,71.14
2023-05-03T06:29:37.313Z,71.18
2023-05-03T06:30:10.871Z,71.26
2023-05-03T06:30:48.673Z,71.25
2023-05-03T06:31:21.812Z,71.18
2023-05-03T06:31:55.012Z,71.18
2023-05-03T06:32:28.232Z,71.14
2023-05-03T06:33:01.588Z,71.17
2023-05-03T06:33:34.870Z,71.26
2023-05-03T06:34:10.272Z,71.33
2023-05-03T06:34:43.704Z,71.33
2023-05-03T06:35:19.561Z,71.27
2023-05-03T06:35:52.936Z,71.30
2023-05-03T06:36:26.060Z,71.27
2023-05-03T06:36:59.261Z,71.33
2023-05-03T06:37:32.612Z,71.34
2023-05-03T06:38:05.955Z,71.31
2023-05-03T06:38:39.190Z,71.32
2023-05-03T06:39:12.521Z,71.33
2023-05-03T06:39:45.716Z,71.42
2023-05-03T06:40:19.145Z,71.43
2023-05-03T06:40:52.588Z,71.34
2023-05-03T06:41:26.075Z,71.35
2023-05-03T06:41:59.162Z,71.47
2023-05-03T06:42:32.872Z,71.46
2023-05-03T06:43:05.922Z,71.41
2023-05-03T06:43:39.122Z,71.43
2023-05-03T06:44:12.408Z,71.45
2023-05-03T06:44:45.701Z,71.42
2023-05-03T06:45:18.846Z,71.37
2023-05-03T06:45:53.634Z,71.39
2023-05-03T06:46:27.946Z,71.50
2023-05-03T06:47:01.366Z,71.53
2023-05-03T06:47:34.741Z,71.51
2023-05-03T06:48:08.132Z,71.45
2023-05-03T06:48:41.579Z,71.36
2023-05-03T06:49:14.763Z,71.37
2023-05-03T06:49:48.367Z,71.41
2023-05-03T06:50:22.598Z,71.37
2023-05-03T06:50:56.830Z,71.37
2023-05-03T06:51:32.420Z,71.36
2023-05-03T06:52:05.979Z,71.35
2023-05-03T06:52:39.204Z,71.38
2023-05-03T06:53:12.287Z,71.43
2023-05-03T06:53:46.383Z,71.53
2023-05-03T06:54:20.430Z,71.58
2023-05-03T06:54:53.872Z,71.62
2023-05-03T06:55:28.117Z,71.66
2023-05-03T06:56:01.608Z,71.67
2023-05-03T06:56:35.212Z,71.69
2023-05-03T06:57:09.036Z,71.71
2023-05-03T06:57:43.054Z,71.70
2023-05-03T06:58:16.935Z,71.73
2023-05-03T06:58:50.107Z,71.76
2023-05-03T06:59:23.345Z,71.65
2023-05-03T06:59:56.630Z,71.33
2023-05-03T07:00:30.143Z,71.23
2023-05-03T07:01:03.523Z,71.16
2023-05-03T07:01:36.667Z,71.11
2023-05-03T07:02:09.907Z,71.11
2023-05-03T07:02:43.360Z,71.14
2023-05-03T07:03:16.829Z,71.13
2023-05-03T07:03:50.174Z,71.18
2023-05-03T07:04:23.466Z,71.23
2023-05-03T07:04:56.596Z,71.29
2023-05-03T07:05:29.702Z,71.31
2023-05-03T07:06:02.785Z,71.26
2023-05-03T07:06:48.317Z,71.20
2023-05-03T07:07:29.136Z,71.22
2023-05-03T07:08:02.435Z,71.21
2023-05-03T07:08:35.801Z,71.24
2023-05-03T07:09:09.229Z,71.34
2023-05-03T07:09:43.694Z,71.40
2023-05-03T07:10:17.349Z,71.39
2023-05-03T07:10:50.569Z,71.30
2023-05-03T07:11:24.169Z,71.26
2023-05-03T07:11:57.669Z,71.31
2023-05-03T07:12:30.928Z,71.24
2023-05-03T07:13:04.230Z,71.22
2023-05-03T07:13:37.376Z,71.26
2023-05-03T07:14:10.549Z,71.32
2023-05-03T07:14:43.870Z,71.35
2023-05-03T07:15:17.111Z,71.38
2023-05-03T07:15:50.753Z,71.29
2023-05-03T07:16:25.786Z,71.25
2023-05-03T07:16:58.922Z,71.29